sensor_id;sensor_type;location;lat;lon;timestamp;P1;durP1;ratioP1;P2;durP2;ratioP2
3355;SDS011;1691;52.486;13.374;2022-08-19T00:01:55;12.67;;;11.77;;
3355;SDS011;1691;52.486;13.374;2022-08-19T00:04:26;13.63;;;12.40;;
3355;SDS011;1691;52.486;13.374;2022-08-19T00:06:57;13.30;;;12.17;;
3355;SDS011;1691;52.486;13.374;2022-08-19T00:09:25;12.70;;;11.00;;
3355;SDS011;1691;52.486;13.374;2022-08-19T00:11:56;12.90;;;11.80;;
3355;SDS011;1691;52.486;13.374;2022-08-19T00:14:24;13.43;;;12.20;;
3355;SDS011;1691;52.486;13.374;2022-08-19T00:16:53;15.00;;;12.00;;
3355;SDS011;1691;52.486;13.374;2022-08-19T00:19:21;19.17;;;14.57;;
3355;SDS011;1691;52.486;13.374;2022-08-19T00:21:49;15.87;;;14.20;;
3355;SDS011;1691;52.486;13.374;2022-08-19T00:24:17;15.50;;;13.60;;
3355;SDS011;1691;52.486;13.374;2022-08-19T00:26:45;15.67;;;14.07;;
3355;SDS011;1691;52.486;13.374;2022-08-19T00:29:14;15.47;;;14.07;;
3355;SDS011;1691;52.486;13.374;2022-08-19T00:31:43;14.10;;;12.67;;
3355;SDS011;1691;52.486;13.374;2022-08-19T00:34:12;17.87;;;14.03;;
3355;SDS011;1691;52.486;13.374;2022-08-19T00:36:41;17.93;;;13.00;;
3355;SDS011;1691;52.486;13.374;2022-08-19T00:39:09;19.33;;;15.30;;
3355;SDS011;1691;52.486;13.374;2022-08-19T00:41:37;17.87;;;16.03;;
3355;SDS011;1691;52.486;13.374;2022-08-19T00:44:08;14.97;;;13.60;;
3355;SDS011;1691;52.486;13.374;2022-08-19T00:46:42;16.30;;;14.57;;
3355;SDS011;1691;52.486;13.374;2022-08-19T00:49:34;15.97;;;14.40;;
3355;SDS011;1691;52.486;13.374;2022-08-19T00:52:14;15.50;;;13.90;;
3355;SDS011;1691;52.486;13.374;2022-08-19T00:54:50;16.03;;;14.43;;
3355;SDS011;1691;52.486;13.374;2022-08-19T00:57:21;14.60;;;13.30;;
3355;SDS011;1691;52.486;13.374;2022-08-19T00:59:56;16.40;;;14.90;;
3355;SDS011;1691;52.486;13.374;2022-08-19T01:02:29;17.80;;;15.90;;
3355;SDS011;1691;52.486;13.374;2022-08-19T01:04:57;17.37;;;15.70;;
3355;SDS011;1691;52.486;13.374;2022-08-19T01:07:28;16.60;;;14.93;;
3355;SDS011;1691;52.486;13.374;2022-08-19T01:10:03;14.37;;;13.07;;
3355;SDS011;1691;52.486;13.374;2022-08-19T01:12:37;18.30;;;16.37;;
3355;SDS011;1691;52.486;13.374;2022-08-19T01:15:07;18.40;;;14.60;;
3355;SDS011;1691;52.486;13.374;2022-08-19T01:17:38;14.77;;;13.43;;
3355;SDS011;1691;52.486;13.374;2022-08-19T01:20:09;16.37;;;14.70;;
3355;SDS011;1691;52.486;13.374;2022-08-19T01:25:22;14.20;;;12.97;;
3355;SDS011;1691;52.486;13.374;2022-08-19T01:28:21;17.53;;;14.80;;
3355;SDS011;1691;52.486;13.374;2022-08-19T01:31:05;14.63;;;13.23;;
3355;SDS011;1691;52.486;13.374;2022-08-19T01:33:53;14.60;;;13.30;;
3355;SDS011;1691;52.486;13.374;2022-08-19T01:36:24;16.17;;;14.80;;
3355;SDS011;1691;52.486;13.374;2022-08-19T01:38:59;32.20;;;15.87;;
3355;SDS011;1691;52.486;13.374;2022-08-19T01:41:30;25.73;;;16.13;;
3355;SDS011;1691;52.486;13.374;2022-08-19T01:43:57;21.17;;;15.93;;
3355;SDS011;1691;52.486;13.374;2022-08-19T01:46:43;20.67;;;15.73;;
3355;SDS011;1691;52.486;13.374;2022-08-19T01:49:14;22.53;;;17.43;;
3355;SDS011;1691;52.486;13.374;2022-08-19T01:51:44;19.30;;;17.40;;
3355;SDS011;1691;52.486;13.374;2022-08-19T01:54:13;24.40;;;19.30;;
3355;SDS011;1691;52.486;13.374;2022-08-19T01:56:53;19.67;;;17.77;;
3355;SDS011;1691;52.486;13.374;2022-08-19T01:59:28;20.17;;;16.10;;
3355;SDS011;1691;52.486;13.374;2022-08-19T02:01:56;18.30;;;16.50;;
3355;SDS011;1691;52.486;13.374;2022-08-19T02:04:23;26.87;;;18.00;;
3355;SDS011;1691;52.486;13.374;2022-08-19T02:06:51;20.07;;;17.00;;
3355;SDS011;1691;52.486;13.374;2022-08-19T02:09:18;20.23;;;18.13;;
3355;SDS011;1691;52.486;13.374;2022-08-19T02:11:46;19.40;;;17.03;;
3355;SDS011;1691;52.486;13.374;2022-08-19T02:14:13;24.50;;;18.80;;
3355;SDS011;1691;52.486;13.374;2022-08-19T02:16:40;18.43;;;16.50;;
3355;SDS011;1691;52.486;13.374;2022-08-19T02:19:07;21.30;;;17.10;;
3355;SDS011;1691;52.486;13.374;2022-08-19T02:21:34;19.63;;;17.53;;
3355;SDS011;1691;52.486;13.374;2022-08-19T02:24:01;23.43;;;18.80;;
3355;SDS011;1691;52.486;13.374;2022-08-19T02:26:29;21.30;;;19.17;;
3355;SDS011;1691;52.486;13.374;2022-08-19T02:28:56;22.23;;;20.00;;
3355;SDS011;1691;52.486;13.374;2022-08-19T02:31:25;21.70;;;18.97;;
3355;SDS011;1691;52.486;13.374;2022-08-19T02:33:54;23.03;;;17.70;;
3355;SDS011;1691;52.486;13.374;2022-08-19T02:36:23;19.53;;;17.00;;
3355;SDS011;1691;52.486;13.374;2022-08-19T02:38:51;20.33;;;18.10;;
3355;SDS011;1691;52.486;13.374;2022-08-19T02:41:22;19.50;;;17.23;;
3355;SDS011;1691;52.486;13.374;2022-08-19T02:43:56;23.60;;;19.10;;
3355;SDS011;1691;52.486;13.374;2022-08-19T02:46:47;17.43;;;15.80;;
3355;SDS011;1691;52.486;13.374;2022-08-19T02:49:18;18.47;;;16.57;;
3355;SDS011;1691;52.486;13.374;2022-08-19T02:51:45;19.20;;;17.03;;
3355;SDS011;1691;52.486;13.374;2022-08-19T02:54:13;20.10;;;16.17;;
3355;SDS011;1691;52.486;13.374;2022-08-19T02:56:42;18.27;;;16.30;;
3355;SDS011;1691;52.486;13.374;2022-08-19T02:59:10;19.10;;;17.30;;
3355;SDS011;1691;52.486;13.374;2022-08-19T03:01:39;18.93;;;16.03;;
3355;SDS011;1691;52.486;13.374;2022-08-19T03:04:09;19.97;;;17.10;;
3355;SDS011;1691;52.486;13.374;2022-08-19T03:06:39;19.57;;;17.37;;
3355;SDS011;1691;52.486;13.374;2022-08-19T03:09:11;19.20;;;16.93;;
3355;SDS011;1691;52.486;13.374;2022-08-19T03:11:39;17.80;;;15.93;;
3355;SDS011;1691;52.486;13.374;2022-08-19T03:14:06;33.33;;;25.13;;
3355;SDS011;1691;52.486;13.374;2022-08-19T03:16:45;31.70;;;27.73;;
3355;SDS011;1691;52.486;13.374;2022-08-19T03:19:18;25.10;;;21.40;;
3355;SDS011;1691;52.486;13.374;2022-08-19T03:21:47;23.50;;;19.90;;
3355;SDS011;1691;52.486;13.374;2022-08-19T03:24:15;20.63;;;18.43;;
3355;SDS011;1691;52.486;13.374;2022-08-19T03:26:46;21.63;;;18.93;;
3355;SDS011;1691;52.486;13.374;2022-08-19T03:29:19;24.63;;;21.03;;
3355;SDS011;1691;52.486;13.374;2022-08-19T03:31:56;23.83;;;20.93;;
3355;SDS011;1691;52.486;13.374;2022-08-19T03:34:28;22.13;;;18.47;;
3355;SDS011;1691;52.486;13.374;2022-08-19T03:36:58;26.37;;;22.60;;
3355;SDS011;1691;52.486;13.374;2022-08-19T03:39:31;25.33;;;22.40;;
3355;SDS011;1691;52.486;13.374;2022-08-19T03:41:58;25.53;;;20.00;;
3355;SDS011;1691;52.486;13.374;2022-08-19T03:44:48;20.47;;;18.53;;
3355;SDS011;1691;52.486;13.374;2022-08-19T03:47:15;22.97;;;18.83;;
3355;SDS011;1691;52.486;13.374;2022-08-19T03:49:43;22.67;;;20.27;;
3355;SDS011;1691;52.486;13.374;2022-08-19T03:52:11;21.37;;;18.70;;
3355;SDS011;1691;52.486;13.374;2022-08-19T03:54:38;21.63;;;18.83;;
3355;SDS011;1691;52.486;13.374;2022-08-19T03:57:05;21.83;;;18.90;;
3355;SDS011;1691;52.486;13.374;2022-08-19T03:59:34;20.67;;;18.57;;
3355;SDS011;1691;52.486;13.374;2022-08-19T04:02:05;23.13;;;20.77;;
3355;SDS011;1691;52.486;13.374;2022-08-19T04:04:37;21.50;;;19.30;;
3355;SDS011;1691;52.486;13.374;2022-08-19T04:07:06;22.67;;;20.43;;
3355;SDS011;1691;52.486;13.374;2022-08-19T04:09:35;23.00;;;20.47;;
3355;SDS011;1691;52.486;13.374;2022-08-19T04:12:03;25.37;;;21.20;;
3355;SDS011;1691;52.486;13.374;2022-08-19T04:14:31;26.33;;;21.20;;
3355;SDS011;1691;52.486;13.374;2022-08-19T04:17:00;22.03;;;19.70;;
3355;SDS011;1691;52.486;13.374;2022-08-19T04:19:33;21.90;;;19.57;;
3355;SDS011;1691;52.486;13.374;2022-08-19T04:22:02;20.87;;;19.07;;
3355;SDS011;1691;52.486;13.374;2022-08-19T04:24:30;22.50;;;19.93;;
3355;SDS011;1691;52.486;13.374;2022-08-19T04:26:58;30.63;;;19.33;;
3355;SDS011;1691;52.486;13.374;2022-08-19T04:29:28;19.77;;;17.87;;
3355;SDS011;1691;52.486;13.374;2022-08-19T04:31:56;19.93;;;17.73;;
3355;SDS011;1691;52.486;13.374;2022-08-19T04:34:33;18.90;;;17.00;;
3355;SDS011;1691;52.486;13.374;2022-08-19T04:37:01;20.97;;;18.83;;
3355;SDS011;1691;52.486;13.374;2022-08-19T04:39:34;20.63;;;18.83;;
3355;SDS011;1691;52.486;13.374;2022-08-19T04:42:23;18.03;;;16.30;;
3355;SDS011;1691;52.486;13.374;2022-08-19T04:45:07;18.97;;;17.03;;
3355;SDS011;1691;52.486;13.374;2022-08-19T04:47:40;17.70;;;16.17;;
3355;SDS011;1691;52.486;13.374;2022-08-19T04:50:16;17.63;;;15.67;;
3355;SDS011;1691;52.486;13.374;2022-08-19T04:52:43;21.90;;;16.20;;
3355;SDS011;1691;52.486;13.374;2022-08-19T04:55:11;15.43;;;14.03;;
3355;SDS011;1691;52.486;13.374;2022-08-19T04:57:38;16.10;;;14.50;;
3355;SDS011;1691;52.486;13.374;2022-08-19T05:00:07;15.27;;;13.77;;
3355;SDS011;1691;52.486;13.374;2022-08-19T05:02:35;15.43;;;13.47;;
3355;SDS011;1691;52.486;13.374;2022-08-19T05:05:04;13.83;;;12.53;;
3355;SDS011;1691;52.486;13.374;2022-08-19T05:07:32;12.20;;;11.30;;
3355;SDS011;1691;52.486;13.374;2022-08-19T05:10:00;12.23;;;11.33;;
3355;SDS011;1691;52.486;13.374;2022-08-19T05:12:27;12.23;;;11.13;;
3355;SDS011;1691;52.486;13.374;2022-08-19T05:14:55;12.80;;;11.57;;
3355;SDS011;1691;52.486;13.374;2022-08-19T05:17:25;12.30;;;11.00;;
3355;SDS011;1691;52.486;13.374;2022-08-19T05:19:58;14.30;;;10.10;;
3355;SDS011;1691;52.486;13.374;2022-08-19T05:22:45;11.60;;;10.50;;
3355;SDS011;1691;52.486;13.374;2022-08-19T05:25:15;10.87;;;9.83;;
3355;SDS011;1691;52.486;13.374;2022-08-19T05:27:46;10.60;;;9.50;;
3355;SDS011;1691;52.486;13.374;2022-08-19T05:30:13;10.60;;;9.77;;
3355;SDS011;1691;52.486;13.374;2022-08-19T05:32:42;10.53;;;9.60;;
3355;SDS011;1691;52.486;13.374;2022-08-19T05:35:09;10.80;;;9.70;;
3355;SDS011;1691;52.486;13.374;2022-08-19T05:37:38;10.30;;;9.40;;
3355;SDS011;1691;52.486;13.374;2022-08-19T05:40:08;10.53;;;9.33;;
3355;SDS011;1691;52.486;13.374;2022-08-19T05:42:37;10.13;;;9.30;;
3355;SDS011;1691;52.486;13.374;2022-08-19T05:45:04;15.50;;;10.10;;
3355;SDS011;1691;52.486;13.374;2022-08-19T05:47:32;11.37;;;10.60;;
3355;SDS011;1691;52.486;13.374;2022-08-19T05:49:59;9.83;;;9.23;;
3355;SDS011;1691;52.486;13.374;2022-08-19T05:52:30;12.40;;;11.07;;
3355;SDS011;1691;52.486;13.374;2022-08-19T05:54:58;11.40;;;10.50;;
3355;SDS011;1691;52.486;13.374;2022-08-19T05:57:25;14.40;;;11.40;;
3355;SDS011;1691;52.486;13.374;2022-08-19T05:59:55;17.53;;;11.37;;
3355;SDS011;1691;52.486;13.374;2022-08-19T06:02:25;13.93;;;12.27;;
3355;SDS011;1691;52.486;13.374;2022-08-19T06:04:54;11.83;;;10.83;;
3355;SDS011;1691;52.486;13.374;2022-08-19T06:07:21;12.77;;;11.57;;
3355;SDS011;1691;52.486;13.374;2022-08-19T06:09:48;13.17;;;11.83;;
3355;SDS011;1691;52.486;13.374;2022-08-19T06:12:26;17.83;;;12.47;;
3355;SDS011;1691;52.486;13.374;2022-08-19T06:15:05;12.87;;;11.73;;
3355;SDS011;1691;52.486;13.374;2022-08-19T06:17:38;15.00;;;12.50;;
3355;SDS011;1691;52.486;13.374;2022-08-19T06:20:06;13.57;;;12.23;;
3355;SDS011;1691;52.486;13.374;2022-08-19T06:22:41;14.03;;;12.77;;
3355;SDS011;1691;52.486;13.374;2022-08-19T06:25:49;15.90;;;13.30;;
3355;SDS011;1691;52.486;13.374;2022-08-19T06:28:31;13.43;;;12.00;;
3355;SDS011;1691;52.486;13.374;2022-08-19T06:31:30;13.83;;;12.63;;
3355;SDS011;1691;52.486;13.374;2022-08-19T06:34:27;15.40;;;13.37;;
3355;SDS011;1691;52.486;13.374;2022-08-19T06:37:31;15.33;;;13.83;;
3355;SDS011;1691;52.486;13.374;2022-08-19T06:41:02;18.10;;;14.13;;
3355;SDS011;1691;52.486;13.374;2022-08-19T06:44:30;13.17;;;12.10;;
3355;SDS011;1691;52.486;13.374;2022-08-19T06:47:27;13.90;;;12.53;;
3355;SDS011;1691;52.486;13.374;2022-08-19T06:53:45;13.60;;;12.30;;
3355;SDS011;1691;52.486;13.374;2022-08-19T06:56:28;13.67;;;12.33;;
3355;SDS011;1691;52.486;13.374;2022-08-19T06:59:23;17.10;;;14.20;;
3355;SDS011;1691;52.486;13.374;2022-08-19T07:02:30;14.87;;;13.30;;
3355;SDS011;1691;52.486;13.374;2022-08-19T07:05:31;14.63;;;13.13;;
3355;SDS011;1691;52.486;13.374;2022-08-19T07:08:26;16.70;;;15.17;;
3355;SDS011;1691;52.486;13.374;2022-08-19T07:11:20;17.97;;;12.50;;
3355;SDS011;1691;52.486;13.374;2022-08-19T07:14:12;16.37;;;14.60;;
3355;SDS011;1691;52.486;13.374;2022-08-19T07:16:51;14.80;;;13.30;;
3355;SDS011;1691;52.486;13.374;2022-08-19T07:19:51;14.83;;;13.47;;
3355;SDS011;1691;52.486;13.374;2022-08-19T07:23:12;14.53;;;13.30;;
3355;SDS011;1691;52.486;13.374;2022-08-19T07:29:42;14.77;;;13.30;;
3355;SDS011;1691;52.486;13.374;2022-08-19T07:32:42;14.63;;;13.23;;
3355;SDS011;1691;52.486;13.374;2022-08-19T07:36:04;14.20;;;13.00;;
3355;SDS011;1691;52.486;13.374;2022-08-19T07:38:54;13.97;;;12.70;;
3355;SDS011;1691;52.486;13.374;2022-08-19T07:42:51;19.63;;;14.47;;
3355;SDS011;1691;52.486;13.374;2022-08-19T07:46:05;18.80;;;14.03;;
3355;SDS011;1691;52.486;13.374;2022-08-19T07:49:07;20.57;;;14.30;;
3355;SDS011;1691;52.486;13.374;2022-08-19T07:51:52;14.37;;;13.07;;
3355;SDS011;1691;52.486;13.374;2022-08-19T07:54:40;18.60;;;13.83;;
3355;SDS011;1691;52.486;13.374;2022-08-19T07:57:19;16.33;;;14.13;;
3355;SDS011;1691;52.486;13.374;2022-08-19T08:00:39;18.37;;;14.63;;
3355;SDS011;1691;52.486;13.374;2022-08-19T08:03:54;16.20;;;14.50;;
3355;SDS011;1691;52.486;13.374;2022-08-19T08:15:04;32.10;;;25.30;;
3355;SDS011;1691;52.486;13.374;2022-08-19T08:18:14;17.10;;;15.57;;
3355;SDS011;1691;52.486;13.374;2022-08-19T08:20:58;17.07;;;15.20;;
3355;SDS011;1691;52.486;13.374;2022-08-19T08:23:40;16.73;;;15.37;;
3355;SDS011;1691;52.486;13.374;2022-08-19T08:30:53;16.77;;;14.77;;
3355;SDS011;1691;52.486;13.374;2022-08-19T08:34:03;15.80;;;14.27;;
3355;SDS011;1691;52.486;13.374;2022-08-19T08:39:44;53.90;;;37.33;;
3355;SDS011;1691;52.486;13.374;2022-08-19T08:42:32;27.50;;;20.87;;
3355;SDS011;1691;52.486;13.374;2022-08-19T08:46:06;25.37;;;17.00;;
3355;SDS011;1691;52.486;13.374;2022-08-19T08:53:01;24.57;;;18.87;;
3355;SDS011;1691;52.486;13.374;2022-08-19T08:56:08;17.97;;;16.17;;
3355;SDS011;1691;52.486;13.374;2022-08-19T09:10:27;17.97;;;15.63;;
3355;SDS011;1691;52.486;13.374;2022-08-19T09:14:02;20.93;;;15.73;;
3355;SDS011;1691;52.486;13.374;2022-08-19T09:17:16;16.37;;;14.93;;
3355;SDS011;1691;52.486;13.374;2022-08-19T09:23:27;15.33;;;13.83;;
3355;SDS011;1691;52.486;13.374;2022-08-19T09:26:40;17.97;;;14.80;;
3355;SDS011;1691;52.486;13.374;2022-08-19T09:30:24;15.57;;;14.17;;
3355;SDS011;1691;52.486;13.374;2022-08-19T09:33:21;16.13;;;14.50;;
3355;SDS011;1691;52.486;13.374;2022-08-19T09:36:52;15.53;;;13.97;;
3355;SDS011;1691;52.486;13.374;2022-08-19T09:39:47;15.13;;;14.03;;
3355;SDS011;1691;52.486;13.374;2022-08-19T09:43:02;18.23;;;13.03;;
3355;SDS011;1691;52.486;13.374;2022-08-19T09:46:14;16.00;;;14.50;;
3355;SDS011;1691;52.486;13.374;2022-08-19T09:49:13;27.63;;;20.73;;
3355;SDS011;1691;52.486;13.374;2022-08-19T09:52:09;30.60;;;21.10;;
3355;SDS011;1691;52.486;13.374;2022-08-19T09:55:11;19.70;;;16.23;;
3355;SDS011;1691;52.486;13.374;2022-08-19T09:57:53;19.83;;;14.27;;
3355;SDS011;1691;52.486;13.374;2022-08-19T10:00:56;14.90;;;12.50;;
3355;SDS011;1691;52.486;13.374;2022-08-19T10:03:52;13.97;;;12.53;;
3355;SDS011;1691;52.486;13.374;2022-08-19T10:06:40;14.07;;;12.90;;
3355;SDS011;1691;52.486;13.374;2022-08-19T10:09:28;13.20;;;12.10;;
3355;SDS011;1691;52.486;13.374;2022-08-19T10:12:17;17.97;;;14.30;;
3355;SDS011;1691;52.486;13.374;2022-08-19T10:15:05;14.43;;;13.27;;
3355;SDS011;1691;52.486;13.374;2022-08-19T10:17:50;18.40;;;13.83;;
3355;SDS011;1691;52.486;13.374;2022-08-19T10:20:32;16.60;;;12.60;;
3355;SDS011;1691;52.486;13.374;2022-08-19T10:23:18;14.20;;;13.10;;
3355;SDS011;1691;52.486;13.374;2022-08-19T10:29:37;14.07;;;12.83;;
3355;SDS011;1691;52.486;13.374;2022-08-19T10:32:17;14.20;;;12.87;;
3355;SDS011;1691;52.486;13.374;2022-08-19T10:35:00;13.93;;;12.67;;
3355;SDS011;1691;52.486;13.374;2022-08-19T10:37:47;13.33;;;12.40;;
3355;SDS011;1691;52.486;13.374;2022-08-19T10:40:40;13.93;;;12.93;;
3355;SDS011;1691;52.486;13.374;2022-08-19T10:44:08;14.67;;;13.13;;
3355;SDS011;1691;52.486;13.374;2022-08-19T10:50:27;14.90;;;13.50;;
3355;SDS011;1691;52.486;13.374;2022-08-19T10:53:23;25.30;;;22.60;;
3355;SDS011;1691;52.486;13.374;2022-08-19T10:56:33;23.50;;;20.80;;
3355;SDS011;1691;52.486;13.374;2022-08-19T10:59:28;23.90;;;21.13;;
3355;SDS011;1691;52.486;13.374;2022-08-19T11:02:12;16.03;;;13.53;;
3355;SDS011;1691;52.486;13.374;2022-08-19T11:05:05;15.43;;;13.40;;
3355;SDS011;1691;52.486;13.374;2022-08-19T11:07:53;19.83;;;12.63;;
3355;SDS011;1691;52.486;13.374;2022-08-19T11:10:52;15.63;;;14.07;;
3355;SDS011;1691;52.486;13.374;2022-08-19T11:13:27;14.33;;;13.03;;
3355;SDS011;1691;52.486;13.374;2022-08-19T11:16:03;14.80;;;13.27;;
3355;SDS011;1691;52.486;13.374;2022-08-19T11:18:52;15.07;;;12.90;;
3355;SDS011;1691;52.486;13.374;2022-08-19T11:21:29;14.13;;;12.87;;
3355;SDS011;1691;52.486;13.374;2022-08-19T11:24:38;27.53;;;14.30;;
3355;SDS011;1691;52.486;13.374;2022-08-19T11:27:22;13.10;;;11.90;;
3355;SDS011;1691;52.486;13.374;2022-08-19T11:30:31;13.00;;;11.63;;
3355;SDS011;1691;52.486;13.374;2022-08-19T11:33:25;13.43;;;12.17;;
3355;SDS011;1691;52.486;13.374;2022-08-19T11:36:29;13.80;;;12.60;;
3355;SDS011;1691;52.486;13.374;2022-08-19T11:39:18;13.63;;;12.23;;
3355;SDS011;1691;52.486;13.374;2022-08-19T11:45:53;13.80;;;12.60;;
3355;SDS011;1691;52.486;13.374;2022-08-19T11:48:38;21.40;;;11.70;;
3355;SDS011;1691;52.486;13.374;2022-08-19T11:51:23;13.07;;;11.10;;
3355;SDS011;1691;52.486;13.374;2022-08-19T11:54:52;15.17;;;11.90;;
3355;SDS011;1691;52.486;13.374;2022-08-19T11:58:08;13.33;;;12.07;;
3355;SDS011;1691;52.486;13.374;2022-08-19T12:01:13;12.30;;;11.33;;
3355;SDS011;1691;52.486;13.374;2022-08-19T12:04:05;12.23;;;11.07;;
3355;SDS011;1691;52.486;13.374;2022-08-19T12:07:05;13.77;;;12.43;;
3355;SDS011;1691;52.486;13.374;2022-08-19T12:09:50;23.93;;;10.60;;
3355;SDS011;1691;52.486;13.374;2022-08-19T12:12:29;15.90;;;10.47;;
3355;SDS011;1691;52.486;13.374;2022-08-19T12:15:53;22.73;;;20.13;;
3355;SDS011;1691;52.486;13.374;2022-08-19T12:18:53;15.60;;;14.00;;
3355;SDS011;1691;52.486;13.374;2022-08-19T12:22:23;12.13;;;10.90;;
3355;SDS011;1691;52.486;13.374;2022-08-19T12:25:33;11.67;;;10.47;;
3355;SDS011;1691;52.486;13.374;2022-08-19T12:28:47;10.17;;;9.30;;
3355;SDS011;1691;52.486;13.374;2022-08-19T12:39:09;9.30;;;8.40;;
3355;SDS011;1691;52.486;13.374;2022-08-19T12:42:52;8.90;;;8.40;;
3355;SDS011;1691;52.486;13.374;2022-08-19T12:45:43;8.50;;;8.00;;
3355;SDS011;1691;52.486;13.374;2022-08-19T12:48:26;9.53;;;8.83;;
3355;SDS011;1691;52.486;13.374;2022-08-19T12:51:19;8.63;;;7.87;;
3355;SDS011;1691;52.486;13.374;2022-08-19T12:54:05;8.73;;;7.93;;
3355;SDS011;1691;52.486;13.374;2022-08-19T12:56:50;8.93;;;8.30;;
3355;SDS011;1691;52.486;13.374;2022-08-19T12:59:40;8.30;;;7.70;;
3355;SDS011;1691;52.486;13.374;2022-08-19T13:03:10;8.97;;;8.37;;
3355;SDS011;1691;52.486;13.374;2022-08-19T13:06:36;9.70;;;8.80;;
3355;SDS011;1691;52.486;13.374;2022-08-19T13:09:34;9.20;;;8.30;;
3355;SDS011;1691;52.486;13.374;2022-08-19T13:12:38;8.87;;;7.97;;
3355;SDS011;1691;52.486;13.374;2022-08-19T13:15:45;9.97;;;9.27;;
3355;SDS011;1691;52.486;13.374;2022-08-19T13:18:37;9.13;;;8.50;;
3355;SDS011;1691;52.486;13.374;2022-08-19T13:21:30;9.40;;;8.70;;
3355;SDS011;1691;52.486;13.374;2022-08-19T13:24:25;15.97;;;9.50;;
3355;SDS011;1691;52.486;13.374;2022-08-19T13:27:31;10.20;;;9.30;;
3355;SDS011;1691;52.486;13.374;2022-08-19T13:34:18;9.83;;;9.03;;
3355;SDS011;1691;52.486;13.374;2022-08-19T13:37:36;10.00;;;9.13;;
3355;SDS011;1691;52.486;13.374;2022-08-19T13:40:39;10.40;;;9.40;;
3355;SDS011;1691;52.486;13.374;2022-08-19T13:43:34;9.80;;;9.20;;
3355;SDS011;1691;52.486;13.374;2022-08-19T13:49:16;12.00;;;9.13;;
3355;SDS011;1691;52.486;13.374;2022-08-19T13:51:59;10.10;;;9.17;;
3355;SDS011;1691;52.486;13.374;2022-08-19T13:54:59;12.47;;;10.23;;
3355;SDS011;1691;52.486;13.374;2022-08-19T13:57:51;10.67;;;10.07;;
3355;SDS011;1691;52.486;13.374;2022-08-19T14:00:48;15.93;;;9.77;;
3355;SDS011;1691;52.486;13.374;2022-08-19T14:03:29;12.47;;;10.53;;
3355;SDS011;1691;52.486;13.374;2022-08-19T14:06:12;12.30;;;11.07;;
3355;SDS011;1691;52.486;13.374;2022-08-19T14:09:35;9.77;;;8.97;;
3355;SDS011;1691;52.486;13.374;2022-08-19T14:15:12;12.77;;;11.77;;
3355;SDS011;1691;52.486;13.374;2022-08-19T14:18:04;11.43;;;10.47;;
3355;SDS011;1691;52.486;13.374;2022-08-19T14:21:24;9.90;;;9.03;;
3355;SDS011;1691;52.486;13.374;2022-08-19T14:24:36;11.80;;;10.70;;
3355;SDS011;1691;52.486;13.374;2022-08-19T14:27:17;10.47;;;9.73;;
3355;SDS011;1691;52.486;13.374;2022-08-19T14:30:29;10.23;;;9.23;;
3355;SDS011;1691;52.486;13.374;2022-08-19T14:33:38;16.50;;;9.90;;
3355;SDS011;1691;52.486;13.374;2022-08-19T14:36:17;10.30;;;9.30;;
3355;SDS011;1691;52.486;13.374;2022-08-19T14:38:50;10.33;;;9.03;;
3355;SDS011;1691;52.486;13.374;2022-08-19T14:42:15;18.53;;;9.97;;
3355;SDS011;1691;52.486;13.374;2022-08-19T14:44:42;9.97;;;9.30;;
3355;SDS011;1691;52.486;13.374;2022-08-19T14:48:09;10.57;;;9.80;;
3355;SDS011;1691;52.486;13.374;2022-08-19T14:51:04;13.73;;;10.20;;
3355;SDS011;1691;52.486;13.374;2022-08-19T14:54:56;10.20;;;9.53;;
3355;SDS011;1691;52.486;13.374;2022-08-19T14:57:42;9.77;;;9.10;;
3355;SDS011;1691;52.486;13.374;2022-08-19T15:00:51;9.90;;;8.97;;
3355;SDS011;1691;52.486;13.374;2022-08-19T15:04:23;9.33;;;8.60;;
3355;SDS011;1691;52.486;13.374;2022-08-19T15:07:24;41.57;;;36.87;;
3355;SDS011;1691;52.486;13.374;2022-08-19T15:10:20;14.17;;;12.03;;
3355;SDS011;1691;52.486;13.374;2022-08-19T15:13:06;8.90;;;8.30;;
3355;SDS011;1691;52.486;13.374;2022-08-19T15:15:48;10.30;;;9.50;;
3355;SDS011;1691;52.486;13.374;2022-08-19T15:18:26;9.80;;;9.10;;
3355;SDS011;1691;52.486;13.374;2022-08-19T15:21:13;12.00;;;11.10;;
3355;SDS011;1691;52.486;13.374;2022-08-19T15:24:02;11.27;;;10.20;;
3355;SDS011;1691;52.486;13.374;2022-08-19T15:26:57;9.50;;;8.70;;
3355;SDS011;1691;52.486;13.374;2022-08-19T15:29:32;11.03;;;9.80;;
3355;SDS011;1691;52.486;13.374;2022-08-19T15:32:38;10.60;;;9.80;;
3355;SDS011;1691;52.486;13.374;2022-08-19T15:35:34;10.57;;;9.60;;
3355;SDS011;1691;52.486;13.374;2022-08-19T15:38:12;9.67;;;8.90;;
3355;SDS011;1691;52.486;13.374;2022-08-19T15:41:13;8.87;;;8.27;;
3355;SDS011;1691;52.486;13.374;2022-08-19T15:47:04;11.50;;;10.07;;
3355;SDS011;1691;52.486;13.374;2022-08-19T15:50:00;20.67;;;18.60;;
3355;SDS011;1691;52.486;13.374;2022-08-19T15:52:50;23.77;;;17.80;;
3355;SDS011;1691;52.486;13.374;2022-08-19T15:55:34;39.27;;;25.13;;
3355;SDS011;1691;52.486;13.374;2022-08-19T15:58:30;14.30;;;13.20;;
3355;SDS011;1691;52.486;13.374;2022-08-19T16:01:29;17.67;;;13.00;;
3355;SDS011;1691;52.486;13.374;2022-08-19T16:04:24;17.30;;;12.90;;
3355;SDS011;1691;52.486;13.374;2022-08-19T16:07:29;12.43;;;11.20;;
3355;SDS011;1691;52.486;13.374;2022-08-19T16:13:37;12.83;;;11.53;;
3355;SDS011;1691;52.486;13.374;2022-08-19T16:16:50;11.70;;;10.50;;
3355;SDS011;1691;52.486;13.374;2022-08-19T16:19:40;12.93;;;11.87;;
3355;SDS011;1691;52.486;13.374;2022-08-19T16:22:20;10.97;;;10.27;;
3355;SDS011;1691;52.486;13.374;2022-08-19T16:28:17;12.10;;;11.23;;
3355;SDS011;1691;52.486;13.374;2022-08-19T16:31:15;12.03;;;11.03;;
3355;SDS011;1691;52.486;13.374;2022-08-19T16:33:54;11.77;;;10.67;;
3355;SDS011;1691;52.486;13.374;2022-08-19T16:36:32;15.03;;;10.03;;
3355;SDS011;1691;52.486;13.374;2022-08-19T16:39:36;11.03;;;9.97;;
3355;SDS011;1691;52.486;13.374;2022-08-19T16:42:46;10.40;;;9.70;;
3355;SDS011;1691;52.486;13.374;2022-08-19T16:45:32;9.73;;;9.03;;
3355;SDS011;1691;52.486;13.374;2022-08-19T16:48:40;10.77;;;9.87;;
3355;SDS011;1691;52.486;13.374;2022-08-19T16:51:20;10.10;;;9.10;;
3355;SDS011;1691;52.486;13.374;2022-08-19T16:53:54;10.40;;;9.60;;
3355;SDS011;1691;52.486;13.374;2022-08-19T16:56:38;10.33;;;9.53;;
3355;SDS011;1691;52.486;13.374;2022-08-19T16:59:26;11.10;;;10.13;;
3355;SDS011;1691;52.486;13.374;2022-08-19T17:02:44;8.07;;;7.40;;
3355;SDS011;1691;52.486;13.374;2022-08-19T17:05:24;10.00;;;8.63;;
3355;SDS011;1691;52.486;13.374;2022-08-19T17:08:24;9.70;;;9.13;;
3355;SDS011;1691;52.486;13.374;2022-08-19T17:11:07;9.10;;;8.37;;
3355;SDS011;1691;52.486;13.374;2022-08-19T17:14:04;25.70;;;23.00;;
3355;SDS011;1691;52.486;13.374;2022-08-19T17:16:59;37.03;;;30.33;;
3355;SDS011;1691;52.486;13.374;2022-08-19T17:19:44;11.30;;;10.40;;
3355;SDS011;1691;52.486;13.374;2022-08-19T17:22:28;9.07;;;8.57;;
3355;SDS011;1691;52.486;13.374;2022-08-19T17:25:16;9.27;;;8.37;;
3355;SDS011;1691;52.486;13.374;2022-08-19T17:28:29;9.20;;;8.60;;
3355;SDS011;1691;52.486;13.374;2022-08-19T17:31:20;8.97;;;8.10;;
3355;SDS011;1691;52.486;13.374;2022-08-19T17:34:19;9.70;;;7.90;;
3355;SDS011;1691;52.486;13.374;2022-08-19T17:37:01;10.17;;;9.27;;
3355;SDS011;1691;52.486;13.374;2022-08-19T17:39:50;13.17;;;11.87;;
3355;SDS011;1691;52.486;13.374;2022-08-19T17:42:34;9.20;;;8.50;;
3355;SDS011;1691;52.486;13.374;2022-08-19T17:45:09;7.90;;;7.33;;
3355;SDS011;1691;52.486;13.374;2022-08-19T17:48:36;7.33;;;6.93;;
3355;SDS011;1691;52.486;13.374;2022-08-19T17:54:27;10.50;;;8.33;;
3355;SDS011;1691;52.486;13.374;2022-08-19T17:57:02;8.47;;;7.83;;